createdAt,value
2022-11-05T00:02:58.916Z,99667.40
2022-11-05T00:08:23.218Z,99671.20
2022-11-05T00:13:44.862Z,99664.80
2022-11-05T00:19:06.601Z,99662.60
2022-11-05T00:24:38.858Z,99664.20
2022-11-05T00:29:41.752Z,99651.80
2022-11-05T00:34:44.591Z,99640.60
2022-11-05T00:39:47.513Z,99637.80
2022-11-05T00:45:02.654Z,99641.00
2022-11-05T00:50:05.939Z,99633.40
2022-11-05T00:55:08.973Z,99625.40
2022-11-05T01:00:12.929Z,99622.00
2022-11-05T01:05:16.146Z,99616.40
2022-11-05T01:10:19.622Z,99615.60
2022-11-05T01:15:23.081Z,99609.00
2022-11-05T01:20:26.864Z,99604.60
2022-11-05T01:25:29.956Z,99598.40
2022-11-05T01:30:33.199Z,99601.60
2022-11-05T01:35:36.142Z,99601.80
2022-11-05T01:40:43.244Z,99589.00
2022-11-05T01:45:51.269Z,99589.80
2022-11-05T01:51:04.697Z,99580.60
2022-11-05T01:56:53.885Z,99579.80
2022-11-05T02:01:57.196Z,99574.00
2022-11-05T02:07:00.564Z,99560.40
2022-11-05T02:12:04.013Z,99567.00
2022-11-05T02:17:32.655Z,99572.60
2022-11-05T02:23:18.800Z,99588.00
2022-11-05T02:29:08.331Z,99574.80
2022-11-05T02:34:28.457Z,99575.00
2022-11-05T02:39:58.999Z,99582.40
2022-11-05T02:45:25.845Z,99578.40
2022-11-05T02:50:44.709Z,99585.20
2022-11-05T02:55:59.436Z,99577.00
2022-11-05T03:01:06.914Z,99580.60
2022-11-05T03:06:34.166Z,99577.60
2022-11-05T03:12:21.662Z,99592.80
2022-11-05T03:17:44.805Z,99595.60
2022-11-05T03:23:14.454Z,99602.20
2022-11-05T03:28:24.484Z,99602.60
2022-11-05T03:33:31.445Z,99595.20
2022-11-05T03:38:40.131Z,99597.40
2022-11-05T03:43:50.208Z,99593.40
2022-11-05T03:48:57.148Z,99587.20
2022-11-05T03:54:04.136Z,99578.80
2022-11-05T03:59:10.173Z,99577.60
2022-11-05T04:04:13.097Z,99588.60
2022-11-05T04:09:34.967Z,99590.60
2022-11-05T04:14:39.494Z,99596.20
2022-11-05T04:20:03.345Z,99593.20
2022-11-05T04:25:06.596Z,99587.40
2022-11-05T04:30:18.968Z,99569.80
2022-11-05T04:35:22.243Z,99588.80
2022-11-05T04:40:25.830Z,99595.00
2022-11-05T04:45:33.090Z,99591.20
2022-11-05T04:50:36.200Z,99581.60
2022-11-05T04:55:39.022Z,99594.20
2022-11-05T05:00:42.295Z,99599.60
2022-11-05T05:05:45.319Z,99613.40
2022-11-05T05:10:48.218Z,99616.60
2022-11-05T05:15:51.122Z,99624.40
2022-11-05T05:21:30.006Z,99629.80
2022-11-05T05:26:32.867Z,99643.00
2022-11-05T05:31:36.352Z,99655.20
2022-11-05T05:36:39.426Z,99658.20
2022-11-05T05:41:42.293Z,99665.20
2022-11-05T05:46:45.297Z,99656.00
2022-11-05T05:51:49.644Z,99653.00
2022-11-05T05:56:52.538Z,99661.20
2022-11-05T06:01:55.527Z,99667.00
2022-11-05T06:06:58.666Z,99672.60
2022-11-05T06:12:01.590Z,99684.60
2022-11-05T06:17:04.506Z,99690.40
2022-11-05T06:22:07.525Z,99697.00
2022-11-05T06:27:10.420Z,99700.20
2022-11-05T06:32:13.296Z,99691.00
2022-11-05T06:37:16.277Z,99691.60
2022-11-05T06:42:19.572Z,99693.60
2022-11-05T06:47:22.551Z,99707.20
2022-11-05T06:52:27.287Z,99716.20
2022-11-05T06:57:30.184Z,99720.20
2022-11-05T07:02:33.141Z,99722.20
2022-11-05T07:07:36.046Z,99727.20
2022-11-05T07:12:39.056Z,99727.80
2022-11-05T07:17:45.235Z,99728.00
2022-11-05T07:22:48.185Z,99735.60
2022-11-05T07:27:51.269Z,99747.80
2022-11-05T07:32:54.133Z,99760.80
2022-11-05T07:37:57.364Z,99758.80
2022-11-05T07:43:02.233Z,99757.40
2022-11-05T07:48:06.082Z,99768.60
2022-11-05T07:53:15.184Z,99772.20
2022-11-05T07:58:18.936Z,99779.00
2022-11-05T08:03:21.947Z,99787.20
2022-11-05T08:08:25.389Z,99795.40
2022-11-05T08:13:28.846Z,99799.60
2022-11-05T08:18:33.161Z,99810.00
2022-11-05T08:23:36.172Z,99810.40
2022-11-05T08:28:39.109Z,99813.20
2022-11-05T08:33:42.716Z,99816.40
2022-11-05T08:38:45.570Z,99832.20
2022-11-05T08:43:48.542Z,99838.80
2022-11-05T08:48:51.388Z,99839.20
2022-11-05T08:53:54.385Z,99844.60
2022-11-05T08:58:57.252Z,99860.20
2022-11-05T09:04:00.401Z,99856.40
2022-11-05T09:09:03.865Z,99861.40
2022-11-05T09:14:07.060Z,99867.00
2022-11-05T09:19:10.685Z,99871.40
2022-11-05T09:24:13.831Z,99868.80
2022-11-05T09:29:16.716Z,99874.60
2022-11-05T09:34:19.613Z,99878.00
2022-11-05T09:39:22.986Z,99889.80
2022-11-05T09:45:00.612Z,99901.00
2022-11-05T09:50:14.349Z,99893.40
2022-11-05T09:55:37.281Z,99901.40
2022-11-05T10:00:41.100Z,99910.00
2022-11-05T10:06:08.600Z,99917.20
2022-11-05T10:11:21.946Z,99913.40
2022-11-05T10:16:39.162Z,99931.40
2022-11-05T10:22:05.702Z,99933.20
2022-11-05T10:27:06.473Z,99924.60
2022-11-05T10:32:25.753Z,99931.20
2022-11-05T10:37:30.403Z,99950.00
2022-11-05T10:42:55.919Z,99955.40
2022-11-05T10:48:23.505Z,99963.20
2022-11-05T10:53:32.110Z,99974.00
2022-11-05T10:58:37.200Z,99975.60
2022-11-05T11:04:00.305Z,99988.40
2022-11-05T11:09:08.653Z,99992.40
2022-11-05T11:14:14.620Z,99998.80
2022-11-05T11:19:20.561Z,99997.20
2022-11-05T11:24:23.503Z,100007.40
2022-11-05T11:29:28.608Z,100003.00
2022-11-05T11:34:38.863Z,100012.60
2022-11-05T11:39:48.504Z,100025.00
2022-11-05T11:44:52.208Z,100035.40
2022-11-05T11:49:58.673Z,100038.20
2022-11-05T11:55:13.643Z,100029.40
2022-11-05T12:00:18.958Z,100023.40
2022-11-05T12:05:38.027Z,100030.00
2022-11-05T12:11:08.713Z,100045.40
2022-11-05T12:16:29.317Z,100045.80
2022-11-05T12:21:53.051Z,100037.80
2022-11-05T12:27:44.745Z,100036.00
2022-11-05T12:33:16.062Z,100036.00
2022-11-05T12:38:55.733Z,100039.60
2022-11-05T12:44:29.753Z,100048.20
2022-11-05T12:50:00.108Z,100057.60
2022-11-05T12:55:09.930Z,100063.80
2022-11-05T13:00:27.048Z,100062.80
2022-11-05T13:05:48.236Z,100078.60
2022-11-05T13:11:03.117Z,100085.60
2022-11-05T13:16:34.264Z,100093.60
2022-11-05T13:21:40.312Z,100093.60
2022-11-05T13:26:52.715Z,100101.40
2022-11-05T13:32:04.835Z,100103.00
2022-11-05T13:37:28.211Z,100110.60
2022-11-05T13:42:44.467Z,100121.40
2022-11-05T13:48:25.140Z,100134.80
2022-11-05T13:53:55.626Z,100146.00
2022-11-05T13:59:49.700Z,100150.60
2022-11-05T14:05:00.995Z,100164.20
2022-11-05T14:10:38.165Z,100165.40
2022-11-05T14:15:56.797Z,100170.20
2022-11-05T14:21:03.085Z,100183.00
2022-11-05T14:26:26.723Z,100194.40
2022-11-05T14:32:08.743Z,100199.40
2022-11-05T14:37:12.746Z,100204.80
2022-11-05T14:42:24.991Z,100215.40
2022-11-05T14:47:34.382Z,100214.00
2022-11-05T14:52:40.647Z,100217.00
2022-11-05T14:57:43.490Z,100216.80
2022-11-05T15:03:05.429Z,100220.40
2022-11-05T15:08:24.737Z,100220.20
2022-11-05T15:13:55.445Z,100224.00
2022-11-05T15:18:59.991Z,100230.00
2022-11-05T15:24:04.789Z,100228.20
2022-11-05T15:29:24.874Z,100230.20
2022-11-05T15:34:32.797Z,100235.80
2022-11-05T15:39:39.254Z,100239.60
2022-11-05T15:44:47.216Z,100241.80
2022-11-05T15:50:01.465Z,100234.60
2022-11-05T15:55:14.720Z,100240.00
2022-11-05T16:00:26.025Z,100242.00
2022-11-05T16:05:34.148Z,100250.40
2022-11-05T16:10:39.110Z,100258.80
2022-11-05T16:15:55.522Z,100267.20
2022-11-05T16:21:04.179Z,100274.40
2022-11-05T16:31:57.378Z,100306.80
2022-11-05T16:37:00.534Z,100319.80
2022-11-05T16:42:23.439Z,100323.60
2022-11-05T16:47:26.604Z,100328.00
2022-11-05T16:52:29.834Z,100325.40
2022-11-05T16:57:33.327Z,100334.00
2022-11-05T17:02:36.364Z,100337.80
2022-11-05T17:07:41.513Z,100348.60
2022-11-05T17:12:45.701Z,100354.20
2022-11-05T17:17:49.764Z,100365.00
2022-11-05T17:22:52.654Z,100367.60
2022-11-05T17:27:55.982Z,100366.40
2022-11-05T17:32:59.315Z,100374.80
2022-11-05T17:38:02.352Z,100377.80
2022-11-05T17:43:06.169Z,100388.60
2022-11-05T17:48:13.432Z,100395.60
2022-11-05T17:53:19.261Z,100405.80
2022-11-05T17:58:22.333Z,100415.20
2022-11-05T18:03:25.247Z,100418.40
2022-11-05T18:08:28.153Z,100426.20
2022-11-05T18:13:31.010Z,100427.80
2022-11-05T18:18:34.023Z,100427.40
2022-11-05T18:23:36.938Z,100432.80
2022-11-05T18:28:40.735Z,100431.20
2022-11-05T18:33:44.123Z,100444.00
2022-11-05T18:38:48.095Z,100454.20
2022-11-05T18:43:51.461Z,100454.20
2022-11-05T18:48:54.467Z,100451.80
2022-11-05T18:53:58.680Z,100457.00
2022-11-05T18:59:29.987Z,100458.00
2022-11-05T19:04:26.327Z,100459.80
2022-11-05T19:09:29.399Z,100461.20
2022-11-05T19:14:32.752Z,100467.00
2022-11-05T19:19:35.759Z,100470.60
2022-11-05T19:24:38.774Z,100471.40
2022-11-05T19:29:41.679Z,100472.60
2022-11-05T19:34:44.583Z,100477.40
2022-11-05T19:39:47.546Z,100477.00
2022-11-05T19:44:50.429Z,100477.80
2022-11-05T19:49:53.352Z,100483.80
2022-11-05T19:54:56.240Z,100487.60
2022-11-05T19:59:59.130Z,100489.20
2022-11-05T20:05:02.032Z,100488.80
2022-11-05T20:10:06.770Z,100495.40
2022-11-05T20:15:10.237Z,100495.80
2022-11-05T20:20:13.141Z,100505.20
2022-11-05T20:25:16.095Z,100506.20
2022-11-05T20:30:20.142Z,100506.00
2022-11-05T20:35:24.354Z,100508.60
2022-11-05T20:40:27.393Z,100513.00
2022-11-05T20:45:30.493Z,100514.20
2022-11-05T20:50:33.885Z,100515.00
2022-11-05T20:55:45.228Z,100509.80
2022-11-05T21:00:53.109Z,100520.80
2022-11-05T21:06:00.060Z,100522.80
2022-11-05T21:11:03.765Z,100523.60
2022-11-05T21:16:14.028Z,100527.60
2022-11-05T21:21:20.913Z,100535.20
2022-11-05T21:26:23.913Z,100535.60
2022-11-05T21:31:26.779Z,100534.40
2022-11-05T21:36:30.179Z,100536.20
2022-11-05T21:41:33.093Z,100537.20
2022-11-05T21:46:37.795Z,100536.40
2022-11-05T21:51:59.431Z,100541.20
2022-11-05T21:57:21.090Z,100546.80
2022-11-05T22:02:25.533Z,100544.80
2022-11-05T22:07:38.833Z,100551.20
2022-11-05T22:12:41.794Z,100549.80
2022-11-05T22:17:47.211Z,100546.20
2022-11-05T22:22:50.262Z,100545.80
2022-11-05T22:27:53.178Z,100555.80
2022-11-05T22:32:56.051Z,100552.40
2022-11-05T22:37:58.893Z,100566.60
2022-11-05T22:43:01.818Z,100567.00
2022-11-05T22:48:06.994Z,100572.60
2022-11-05T22:53:10.134Z,100571.00
2022-11-05T22:58:13.378Z,100578.60
2022-11-05T23:03:16.667Z,100583.40
2022-11-05T23:08:37.940Z,100579.60
2022-11-05T23:13:40.778Z,100584.40
2022-11-05T23:19:02.046Z,100588.00
2022-11-05T23:24:05.812Z,100593.00
2022-11-05T23:29:08.712Z,100591.80
2022-11-05T23:34:11.610Z,100592.20
2022-11-05T23:39:14.811Z,100598.20
2022-11-05T23:44:36.505Z,100598.20
2022-11-05T23:49:39.407Z,100598.80
2022-11-05T23:54:42.263Z,100601.20
2022-11-05T23:59:45.121Z,100599.80
